Huvudsida
METAR-TAF:

METAR-TAF

Flygplatser :

Ankara Esenboğa, Turkiet

latitud: 40-07N, longitud: 032-59E, höjd: 953 m

Aktuellt väderrapport

Denna rapport gjordes för 42 minuter sedan, klockan 07:20 UTC
Vind 1 kt varierande vindriktning
Temperatur 14°C
Fuktighet 72%
Tryck 1019 hPa
Sikt 10 km eller mer
Få moln på en höjd av 4000 ft
Brutna moln på en höjd av 20000 ft

METAR: LTAC 230720Z VRB01KT 9999 FEW040 BKN200 14/09 Q1019 NOSIG RMK RWY21L 30003KT 230V040 RWY03L VRB01KT RWY21R VRB02KT

Tid: 11:02 (08:02 UTC)

Väderprognos

Denna rapport gjordes för 3 timmar och 22 minuter sedan, klockan 04:40 UTC
Prognos gäller från 23 kl. 06 UTC till 24 kl. 06 UTC
Vind 2 kt varierande vindriktning
Sikt 10 km eller mer
Spridda moln på en höjd av 4000 ft
Brutna moln på en höjd av 10000 ft
Temporärt
från 23 kl. 06 UTC till 23 kl. 07 UTC
Sikt: 4000 m
fuktdis

TAF: LTAC 230440Z 2306/2406 VRB02KT 9999 SCT040 BKN100 TEMPO 2306/2307 4000 BR

Aktuella väderrapporter och prognoser från 4000 flygplatser (METAR- och TAF-rapporter).

De tillgängliga stationerna syns som gula och röda prickar på kartan.

För musen över prickarna för att se namnen på stationerna.

Klicka sedan för att få väderrapporter och prognoser.

För att ändra kartan: Klicka på de gröna knapparna med ett svart kors på för att zooma in; den gröna knappen med ett streck på för att zooma ut; eller på de gröna pilarna för angränsande kartor.


METAR-TAF: